Time;durP1;ratioP1;P1;durP2;ratioP2;P2;SDS_P1;SDS_P2;PMS_P1;PMS_P2;Temp;Humidity;BMP_temperature;BMP_pressure;BME280_temperature;BME280_humidity;BME280_pressure;Samples;Min_cycle;Max_cycle;Signal;HPM_P1;HPM_P2
2021/11/29 00:02:04;;;;;;;0.77;0.77;;;;;;;3.43;100.00;98775.00;5048568;28;20955;-49
2021/11/29 00:04:31;;;;;;;0.20;0.10;;;;;;;3.49;100.00;98773.09;5042880;28;20958;-49
2021/11/29 00:06:58;;;;;;;1.53;0.97;;;;;;;3.43;100.00;98778.50;5043282;28;20451;-49
2021/11/29 00:09:25;;;;;;;0.20;0.10;;;;;;;3.32;100.00;98777.03;5056237;28;20475;-49
2021/11/29 00:11:51;;;;;;;1.17;1.17;;;;;;;3.26;100.00;98783.25;5043250;28;20475;-49
2021/11/29 00:14:18;;;;;;;0.23;0.13;;;;;;;3.25;100.00;98789.41;5036190;28;20463;-49
2021/11/29 00:16:45;;;;;;;0.37;0.37;;;;;;;3.30;100.00;98792.81;5036234;28;20456;-50
2021/11/29 00:19:11;;;;;;;0.30;0.20;;;;;;;3.28;100.00;98789.34;5042512;28;20534;-49
2021/11/29 00:21:38;;;;;;;0.20;0.10;;;;;;;3.29;100.00;98801.59;5043276;28;20533;-49
2021/11/29 00:24:05;;;;;;;0.20;0.10;;;;;;;3.28;100.00;98795.44;5052410;28;20447;-48
2021/11/29 00:26:32;;;;;;;0.20;0.10;;;;;;;3.37;100.00;98796.16;5042427;28;20822;-48
2021/11/29 00:28:58;;;;;;;0.20;0.10;;;;;;;3.37;100.00;98793.53;5055857;28;20451;-48
2021/11/29 00:31:25;;;;;;;0.83;0.83;;;;;;;3.38;100.00;98803.97;5056019;28;20470;-49
2021/11/29 00:33:52;;;;;;;0.20;0.10;;;;;;;3.33;100.00;98803.25;5056091;28;20873;-49
2021/11/29 00:36:18;;;;;;;0.20;0.10;;;;;;;3.40;100.00;98802.19;5056005;28;20486;-49
2021/11/29 00:38:45;;;;;;;0.20;0.10;;;;;;;3.34;100.00;98807.59;5050894;28;20447;-49
2021/11/29 00:41:12;;;;;;;0.20;0.20;;;;;;;3.43;100.00;98817.03;5074038;28;20477;-49
2021/11/29 00:43:38;;;;;;;0.20;0.10;;;;;;;3.68;100.00;98809.41;5047583;28;20479;-49
2021/11/29 00:46:05;;;;;;;0.20;0.10;;;;;;;3.88;100.00;98814.16;5051574;28;20447;-49
2021/11/29 00:48:32;;;;;;;0.57;0.57;;;;;;;3.67;100.00;98816.41;5055664;28;20451;-49
2021/11/29 00:50:59;;;;;;;0.20;0.10;;;;;;;3.76;100.00;98821.44;5055305;28;20485;-49
2021/11/29 00:53:26;;;;;;;0.20;0.10;;;;;;;4.00;100.00;98830.50;5056428;28;20473;-49
2021/11/29 00:55:53;;;;;;;0.30;0.10;;;;;;;4.07;100.00;98829.41;5040035;28;20483;-49
2021/11/29 00:58:19;;;;;;;1.07;0.57;;;;;;;3.86;100.00;98833.47;5045460;28;20446;-49
2021/11/29 01:00:46;;;;;;;0.30;0.17;;;;;;;3.86;100.00;98843.13;5042727;28;20525;-49
2021/11/29 01:03:13;;;;;;;1.23;1.13;;;;;;;3.83;100.00;98844.03;5056693;28;20501;-49
2021/11/29 01:05:40;;;;;;;0.20;0.10;;;;;;;3.83;100.00;98841.41;5042897;28;20447;-49
2021/11/29 01:08:06;;;;;;;0.20;0.20;;;;;;;3.94;100.00;98837.66;5047189;28;20537;-49
2021/11/29 01:10:33;;;;;;;0.20;0.10;;;;;;;3.85;100.00;98842.25;5035984;28;20468;-49
2021/11/29 01:13:00;;;;;;;0.20;0.10;;;;;;;4.24;100.00;98846.50;5036374;28;20856;-49
2021/11/29 01:15:32;;;;;;;0.20;0.10;;;;;;;4.03;100.00;98851.44;5036165;28;20514;-49
2021/11/29 01:18:02;;;;;;;0.20;0.10;;;;;;;4.12;100.00;98848.59;5036250;28;20876;-49
2021/11/29 01:20:29;;;;;;;0.20;0.10;;;;;;;4.08;100.00;98853.94;5050726;28;20466;-49
2021/11/29 01:22:55;;;;;;;0.30;0.30;;;;;;;3.93;100.00;98856.97;5056250;28;20446;-49
2021/11/29 01:25:22;;;;;;;3.10;1.30;;;;;;;3.71;100.00;98865.38;5064271;28;20463;-49
2021/11/29 01:27:48;;;;;;;0.20;0.10;;;;;;;3.71;100.00;98865.38;5062546;28;20478;-49
2021/11/29 01:30:15;;;;;;;0.20;0.10;;;;;;;3.61;100.00;98860.38;5071751;28;20474;-50
2021/11/29 01:32:41;;;;;;;0.30;0.20;;;;;;;3.64;100.00;98876.91;5072504;28;20443;-49
2021/11/29 01:35:09;;;;;;;0.20;0.10;;;;;;;3.82;100.00;98871.22;5072823;28;20487;-49
2021/11/29 01:37:36;;;;;;;0.83;0.83;;;;;;;3.92;100.00;98871.00;5071973;28;20443;-49
2021/11/29 01:40:06;;;;;;;0.20;0.10;;;;;;;3.76;100.00;98876.63;5070335;28;20503;-49
2021/11/29 01:42:32;;;;;;;0.20;0.10;;;;;;;3.76;100.00;98868.75;5080367;28;20439;-49
2021/11/29 01:44:59;;;;;;;0.30;0.10;;;;;;;3.62;100.00;98877.88;5059601;28;20451;-49
2021/11/29 01:47:26;;;;;;;1.03;1.03;;;;;;;3.57;100.00;98872.72;5073816;28;20451;-49
2021/11/29 01:49:53;;;;;;;0.20;0.10;;;;;;;3.67;100.00;98879.47;5073026;28;20481;-49
2021/11/29 01:52:20;;;;;;;0.20;0.10;;;;;;;3.64;100.00;98876.91;5072706;28;20447;-49
2021/11/29 01:54:46;;;;;;;0.20;0.10;;;;;;;3.60;100.00;98884.91;5068815;28;20523;-49
2021/11/29 01:57:13;;;;;;;0.20;0.10;;;;;;;3.52;100.00;98885.94;5054297;28;20458;-49
2021/11/29 01:59:40;;;;;;;0.20;0.10;;;;;;;3.53;100.00;98884.19;5068684;28;20470;-52
2021/11/29 02:02:07;;;;;;;0.20;0.10;;;;;;;3.42;100.00;98894.91;5067907;28;20465;-49
2021/11/29 02:04:34;;;;;;;0.20;0.10;;;;;;;3.19;100.00;98892.81;5063245;28;20446;-51
2021/11/29 02:07:00;;;;;;;0.20;0.10;;;;;;;3.15;100.00;98896.41;5064675;28;20452;-50
2021/11/29 02:09:27;;;;;;;0.20;0.10;;;;;;;3.10;100.00;98890.38;5077172;28;20441;-50
2021/11/29 02:11:54;;;;;;;0.20;0.10;;;;;;;3.01;100.00;98898.44;5073779;28;20447;-49
2021/11/29 02:14:23;;;;;;;0.20;0.10;;;;;;;2.81;100.00;98904.09;5073542;28;20478;-49
2021/11/29 02:16:50;;;;;;;0.20;0.10;;;;;;;2.81;100.00;98903.25;5073842;28;20482;-50
2021/11/29 02:19:17;;;;;;;0.20;0.10;;;;;;;2.72;100.00;98908.66;5067055;28;20454;-49
2021/11/29 02:21:44;;;;;;;0.20;0.10;;;;;;;2.84;100.00;98906.66;5066930;28;20466;-49
2021/11/29 02:24:10;;;;;;;0.20;0.10;;;;;;;2.84;100.00;98913.66;5066366;28;20450;-49
2021/11/29 02:26:38;;;;;;;0.20;0.10;;;;;;;3.00;100.00;98911.59;5060668;28;20447;-50
2021/11/29 02:29:15;;;;;;;0.20;0.10;;;;;;;2.72;100.00;98912.13;5075888;28;20443;-49
2021/11/29 02:31:45;;;;;;;0.20;0.20;;;;;;;2.91;100.00;98917.91;5060979;28;20470;-49
2021/11/29 02:34:27;;;;;;;0.20;0.10;;;;;;;3.03;100.00;98920.28;5054112;28;20481;-48
2021/11/29 02:36:57;;;;;;;0.20;0.10;;;;;;;3.16;100.00;98913.03;5054138;28;20502;-49
2021/11/29 02:39:25;;;;;;;0.20;0.10;;;;;;;3.03;100.00;98925.53;5047540;28;20512;-49
2021/11/29 02:41:54;;;;;;;0.20;0.17;;;;;;;3.01;100.00;98924.69;5066609;28;20474;-49
2021/11/29 02:44:21;;;;;;;0.20;0.10;;;;;;;3.17;100.00;98923.50;5040164;28;20455;-49
2021/11/29 02:46:47;;;;;;;0.20;0.10;;;;;;;3.24;100.00;98929.47;5055020;28;20572;-49
2021/11/29 02:49:15;;;;;;;0.20;0.10;;;;;;;3.21;100.00;98921.66;5054276;28;20453;-49
2021/11/29 02:51:45;;;;;;;0.20;0.10;;;;;;;3.21;100.00;98934.78;5054202;28;20519;-49
2021/11/29 02:54:16;;;;;;;0.20;0.10;;;;;;;3.09;100.00;98935.03;5051971;28;20443;-49
2021/11/29 02:56:47;;;;;;;0.20;0.10;;;;;;;2.90;100.00;98937.19;5034054;28;20483;-49
2021/11/29 02:59:24;;;;;;;4.07;2.03;;;;;;;2.76;100.00;98937.44;5047249;28;20509;-49
2021/11/29 03:01:54;;;;;;;0.20;0.10;;;;;;;2.57;100.00;98957.88;5045392;28;20463;-48
2021/11/29 03:04:23;;;;;;;0.60;0.60;;;;;;;2.30;100.00;98955.75;5040616;28;20446;-49
2021/11/29 03:06:50;;;;;;;0.20;0.10;;;;;;;2.16;100.00;98961.22;5040732;28;20497;-48
2021/11/29 03:09:18;;;;;;;0.20;0.10;;;;;;;2.11;100.00;98957.81;5046866;28;20451;-49
2021/11/29 03:11:45;;;;;;;0.27;0.17;;;;;;;1.94;100.00;98962.47;5033738;28;20468;-48
2021/11/29 03:14:12;;;;;;;0.20;0.10;;;;;;;1.75;100.00;98967.09;5033592;28;20474;-49
2021/11/29 03:16:39;;;;;;;0.30;0.10;;;;;;;1.82;100.00;98970.50;5033478;28;20507;-49
2021/11/29 03:19:06;;;;;;;0.20;0.10;;;;;;;1.63;100.00;98972.50;5040540;28;20800;-48
2021/11/29 03:21:34;;;;;;;0.20;0.10;;;;;;;1.57;100.00;98973.47;5039944;28;20476;-48
2021/11/29 03:24:04;;;;;;;0.20;0.10;;;;;;;1.66;100.00;98973.34;5045655;28;20456;-48
2021/11/29 03:26:33;;;;;;;0.20;0.20;;;;;;;1.59;100.00;98981.28;5046482;28;20929;-48
2021/11/29 03:29:11;;;;;;;0.20;0.10;;;;;;;1.55;100.00;98977.00;5033507;28;20525;-49
2021/11/29 03:31:39;;;;;;;0.20;0.10;;;;;;;1.46;100.00;98981.47;5033193;28;20468;-49
2021/11/29 03:34:09;;;;;;;0.20;0.10;;;;;;;1.63;100.00;98981.22;5033181;28;20456;-48
2021/11/29 03:36:39;;;;;;;0.20;0.10;;;;;;;1.61;100.00;98983.00;5033085;28;21059;-48
2021/11/29 03:39:10;;;;;;;0.20;0.10;;;;;;;1.51;100.00;98981.41;5044940;28;20816;-48
2021/11/29 03:41:38;;;;;;;0.20;0.10;;;;;;;1.70;100.00;98995.97;5061063;28;20479;-49
2021/11/29 03:44:05;;;;;;;0.20;0.10;;;;;;;1.50;100.00;98987.50;5045096;28;20476;-49
2021/11/29 03:46:32;;;;;;;0.20;0.10;;;;;;;1.83;100.00;98990.56;5041416;28;20821;-47
2021/11/29 03:48:59;;;;;;;0.20;0.20;;;;;;;2.13;100.00;99000.59;5053034;28;20542;-48
2021/11/29 03:51:25;;;;;;;0.20;0.10;;;;;;;2.17;100.00;98993.53;5053010;28;20467;-49
2021/11/29 03:53:54;;;;;;;0.20;0.10;;;;;;;2.02;100.00;98999.88;5055291;28;20483;-49
2021/11/29 03:56:20;;;;;;;0.20;0.10;;;;;;;2.36;100.00;99005.47;5036941;28;20483;-48
2021/11/29 03:58:47;;;;;;;0.20;0.20;;;;;;;2.20;100.00;99012.72;5049571;28;20446;-49
2021/11/29 04:01:14;;;;;;;0.20;0.10;;;;;;;2.19;100.00;99018.81;5050116;28;20476;-49
2021/11/29 04:03:41;;;;;;;0.20;0.10;;;;;;;2.00;100.00;99026.09;5049626;28;20478;-48
2021/11/29 04:06:09;;;;;;;0.20;0.10;;;;;;;1.87;100.00;99029.78;5042894;28;20446;-48
2021/11/29 04:08:36;;;;;;;0.20;0.10;;;;;;;2.10;100.00;99028.59;5043136;28;20953;-49
2021/11/29 04:11:04;;;;;;;0.20;0.10;;;;;;;2.12;100.00;99034.69;5036488;28;20892;-48
2021/11/29 04:13:31;;;;;;;0.20;0.10;;;;;;;2.01;100.00;99037.44;5036362;28;20478;-48
2021/11/29 04:15:57;;;;;;;0.30;0.20;;;;;;;1.94;100.00;99044.56;5036177;28;20523;-48
2021/11/29 04:18:24;;;;;;;0.20;0.10;;;;;;;1.67;100.00;99051.03;5037216;28;20454;-49
2021/11/29 04:20:51;;;;;;;0.20;0.10;;;;;;;1.84;100.00;99050.78;5048461;28;21131;-48
2021/11/29 04:23:17;;;;;;;0.20;0.10;;;;;;;1.81;100.00;99056.09;5050653;28;20450;-52
2021/11/29 04:25:49;;;;;;;0.20;0.10;;;;;;;1.97;100.00;99056.75;5048070;28;20964;-48
2021/11/29 04:28:15;;;;;;;0.20;0.10;;;;;;;1.88;100.00;99060.34;5033246;28;20505;-48
2021/11/29 04:30:42;;;;;;;1.20;0.87;;;;;;;1.88;100.00;99062.09;5055808;28;20471;-48
2021/11/29 04:33:09;;;;;;;0.20;0.10;;;;;;;1.87;100.00;99062.97;5040809;28;20458;-48
2021/11/29 04:35:36;;;;;;;0.20;0.10;;;;;;;1.71;100.00;99068.44;5035861;28;20452;-48
2021/11/29 04:38:03;;;;;;;0.40;0.40;;;;;;;2.07;100.00;99069.69;5037928;28;20846;-49
2021/11/29 04:40:30;;;;;;;0.20;0.10;;;;;;;1.76;100.00;99074.47;5064775;28;20543;-49
2021/11/29 04:42:57;;;;;;;0.20;0.10;;;;;;;1.81;100.00;99069.19;5059070;28;20484;-50
2021/11/29 04:45:24;;;;;;;0.20;0.10;;;;;;;1.71;100.00;99073.66;5045957;28;20451;-49
2021/11/29 04:47:51;;;;;;;0.20;0.10;;;;;;;1.82;100.00;99073.53;5053535;28;20443;-49
2021/11/29 04:50:17;;;;;;;0.30;0.30;;;;;;;1.68;100.00;99078.94;5055271;28;20467;-49
2021/11/29 04:52:44;;;;;;;0.20;0.10;;;;;;;1.74;100.00;99078.00;5055331;28;20458;-49
2021/11/29 04:55:12;;;;;;;0.20;0.10;;;;;;;1.78;100.00;99074.44;5035471;28;20458;-49
2021/11/29 04:57:40;;;;;;;0.30;0.20;;;;;;;2.03;100.00;99085.47;5048532;28;20496;-49
2021/11/29 05:00:11;;;;;;;0.20;0.10;;;;;;;2.03;100.00;99088.94;5046682;28;20467;-49
2021/11/29 05:02:38;;;;;;;0.20;0.10;;;;;;;1.93;100.00;99086.50;5041853;28;20450;-49
2021/11/29 05:05:06;;;;;;;0.20;0.10;;;;;;;1.95;100.00;99082.09;5043186;28;20535;-49
2021/11/29 05:07:33;;;;;;;0.20;0.10;;;;;;;1.99;100.00;99089.03;5048137;28;20444;-49
2021/11/29 05:09:59;;;;;;;0.20;0.10;;;;;;;1.71;100.00;99086.75;5034983;28;20468;-49
2021/11/29 05:12:26;;;;;;;0.20;0.10;;;;;;;1.73;100.00;99100.69;5034857;28;20448;-49
2021/11/29 05:14:53;;;;;;;0.20;0.10;;;;;;;1.60;100.00;99108.72;5047266;28;21013;-49
2021/11/29 05:17:19;;;;;;;0.20;0.10;;;;;;;1.69;100.00;99106.88;5054689;28;21025;-49
2021/11/29 05:19:47;;;;;;;0.20;0.10;;;;;;;1.70;100.00;99115.59;5042493;28;20448;-49
2021/11/29 05:22:13;;;;;;;0.30;0.20;;;;;;;1.62;100.00;99118.28;5034653;28;20448;-49
2021/11/29 05:24:40;;;;;;;0.20;0.10;;;;;;;1.63;100.00;99121.78;5051019;28;20442;-49
2021/11/29 05:27:07;;;;;;;0.20;0.10;;;;;;;1.68;100.00;99126.09;5035223;28;20501;-49
2021/11/29 05:29:34;;;;;;;0.20;0.10;;;;;;;1.84;100.00;99129.38;5034679;28;20864;-49
2021/11/29 05:32:00;;;;;;;0.20;0.10;;;;;;;1.70;100.00;99121.69;5034727;28;20456;-49
2021/11/29 05:34:27;;;;;;;0.20;0.10;;;;;;;2.07;100.00;99135.22;5034609;28;20861;-49
2021/11/29 05:37:14;;;;;;;0.20;0.10;;;;;;;2.46;100.00;99142.53;5034491;28;20491;-49
2021/11/29 05:39:40;;;;;;;0.83;0.83;;;;;;;2.34;100.00;99136.59;5053221;28;20522;-50
2021/11/29 05:42:07;;;;;;;0.20;0.10;;;;;;;1.98;100.00;99145.81;5065561;28;20864;-49
2021/11/29 05:44:34;;;;;;;0.20;0.10;;;;;;;1.98;100.00;99144.94;5038625;28;20476;-49
2021/11/29 05:47:00;;;;;;;0.20;0.10;;;;;;;1.85;100.00;99149.47;5036042;28;20936;-49
2021/11/29 05:49:27;;;;;;;0.20;0.10;;;;;;;1.76;100.00;99153.03;5034110;28;20456;-49
2021/11/29 05:51:55;;;;;;;0.20;0.10;;;;;;;1.61;100.00;99155.84;5034350;28;20459;-48
2021/11/29 05:54:22;;;;;;;0.73;0.70;;;;;;;1.68;100.00;99164.50;5034540;28;20501;-49
2021/11/29 05:56:49;;;;;;;0.20;0.10;;;;;;;1.78;100.00;99167.00;5034233;28;20618;-48
2021/11/29 05:59:18;;;;;;;0.20;0.10;;;;;;;1.97;100.00;99177.25;5047201;28;20506;-49
2021/11/29 06:01:44;;;;;;;0.20;0.10;;;;;;;1.91;100.00;99183.44;5044461;28;20971;-49
2021/11/29 06:04:11;;;;;;;2.43;1.90;;;;;;;2.12;100.00;99181.44;5040493;28;20893;-49
2021/11/29 06:06:38;;;;;;;0.20;0.20;;;;;;;2.25;100.00;99183.03;5043555;28;20517;-49
2021/11/29 06:09:04;;;;;;;0.20;0.10;;;;;;;2.24;100.00;99182.16;5051731;28;20446;-49
2021/11/29 06:11:31;;;;;;;0.20;0.10;;;;;;;2.16;100.00;99184.00;5054169;28;20500;-50
2021/11/29 06:13:57;;;;;;;0.20;0.10;;;;;;;2.10;100.00;99189.34;5036881;28;21019;-49
2021/11/29 06:16:24;;;;;;;0.20;0.10;;;;;;;2.30;100.00;99196.94;5033063;28;20518;-49
2021/11/29 06:18:50;;;;;;;0.20;0.10;;;;;;;2.47;100.00;99197.59;5033365;28;20459;-49
2021/11/29 06:21:17;;;;;;;0.20;0.10;;;;;;;2.55;100.00;99203.59;5044952;28;20467;-50
2021/11/29 06:23:48;;;;;;;0.20;0.10;;;;;;;2.57;100.00;99209.69;5043623;28;20443;-49
2021/11/29 06:26:16;;;;;;;0.20;0.20;;;;;;;2.76;100.00;99198.94;5041685;28;20451;-49
2021/11/29 06:28:42;;;;;;;0.20;0.20;;;;;;;2.74;100.00;99208.56;5053052;28;20447;-49
2021/11/29 06:31:09;;;;;;;0.20;0.10;;;;;;;2.61;100.00;99208.75;5053764;28;20975;-49
2021/11/29 06:33:36;;;;;;;0.57;0.57;;;;;;;2.51;100.00;99212.41;5053717;28;20533;-49
2021/11/29 06:36:03;;;;;;;0.20;0.10;;;;;;;2.62;100.00;99209.63;5053598;28;20581;-50
2021/11/29 06:38:31;;;;;;;0.20;0.10;;;;;;;2.66;100.00;99217.44;5047346;28;20858;-49
2021/11/29 06:40:58;;;;;;;0.20;0.10;;;;;;;2.52;100.00;99216.75;5072184;28;20473;-49
2021/11/29 06:43:26;;;;;;;0.20;0.10;;;;;;;2.46;100.00;99232.56;5047295;28;20452;-49
2021/11/29 06:45:53;;;;;;;0.20;0.10;;;;;;;2.63;100.00;99233.22;5047492;28;21020;-49
2021/11/29 06:48:21;;;;;;;0.20;0.10;;;;;;;2.50;100.00;99223.78;5033304;28;20498;-49
2021/11/29 06:50:51;;;;;;;0.20;0.10;;;;;;;2.45;100.00;99225.56;5033042;28;20896;-49
2021/11/29 06:53:19;;;;;;;0.20;0.10;;;;;;;2.48;100.00;99224.69;5037958;28;20786;-49
2021/11/29 06:55:47;;;;;;;0.20;0.10;;;;;;;2.47;100.00;99229.06;5053381;28;20476;-49
2021/11/29 06:58:13;;;;;;;0.20;0.10;;;;;;;2.45;100.00;99238.69;5045385;28;20537;-49
2021/11/29 07:00:40;;;;;;;0.20;0.10;;;;;;;2.32;100.00;99229.25;5046528;28;20470;-49
2021/11/29 07:03:07;;;;;;;0.20;0.10;;;;;;;2.47;100.00;99230.78;5041769;28;20451;-49
2021/11/29 07:05:34;;;;;;;0.20;0.10;;;;;;;2.57;100.00;99238.53;5038431;28;20451;-49
2021/11/29 07:08:02;;;;;;;0.27;0.17;;;;;;;2.66;100.00;99240.16;5041965;28;20457;-49
2021/11/29 07:10:28;;;;;;;0.30;0.20;;;;;;;2.58;100.00;99250.75;5053438;28;20471;-49
2021/11/29 07:12:56;;;;;;;0.20;0.10;;;;;;;2.47;100.00;99254.41;5035712;28;20497;-49
2021/11/29 07:15:25;;;;;;;0.20;0.10;;;;;;;2.33;100.00;99258.09;5053314;28;20451;-49
2021/11/29 07:17:51;;;;;;;0.20;0.10;;;;;;;2.36;100.00;99249.31;5053169;28;20491;-49
2021/11/29 07:20:18;;;;;;;0.20;0.10;;;;;;;2.22;100.00;99262.59;5039884;28;20470;-48
2021/11/29 07:22:45;;;;;;;0.20;0.10;;;;;;;2.23;100.00;99271.31;5043305;28;20530;-49
2021/11/29 07:25:12;;;;;;;0.20;0.10;;;;;;;2.09;100.00;99274.09;5049705;28;21006;-49
2021/11/29 07:27:39;;;;;;;0.20;0.10;;;;;;;2.03;100.00;99274.13;5045158;28;20454;-50
2021/11/29 07:30:08;;;;;;;0.20;0.10;;;;;;;1.98;100.00;99282.06;5057457;28;20474;-49
2021/11/29 07:32:35;;;;;;;0.20;0.10;;;;;;;1.84;100.00;99285.69;5056855;28;20504;-49
2021/11/29 07:35:03;;;;;;;0.20;0.10;;;;;;;1.74;100.00;99290.16;5057005;28;20512;-49
2021/11/29 07:37:29;;;;;;;0.50;0.40;;;;;;;1.75;100.00;99291.88;5057062;28;20494;-49
2021/11/29 07:39:56;;;;;;;0.20;0.10;;;;;;;1.65;100.00;99296.38;5053893;28;20542;-49
2021/11/29 07:42:23;;;;;;;0.20;0.10;;;;;;;1.78;100.00;99304.94;5065658;28;20874;-49
2021/11/29 07:44:50;;;;;;;0.20;0.10;;;;;;;1.75;100.00;99299.75;5043630;28;20509;-49
2021/11/29 07:47:16;;;;;;;0.20;0.10;;;;;;;1.85;100.00;99301.41;5045675;28;20448;-49
2021/11/29 07:49:43;;;;;;;0.20;0.10;;;;;;;1.91;100.00;99303.09;5041966;28;20450;-49
2021/11/29 07:52:13;;;;;;;0.20;0.10;;;;;;;2.04;100.00;99308.19;5057217;28;20443;-49
2021/11/29 07:54:41;;;;;;;0.20;0.10;;;;;;;2.05;100.00;99306.44;5050823;28;20451;-49
2021/11/29 07:57:08;;;;;;;0.20;0.10;;;;;;;2.20;100.00;99310.69;5037265;28;20549;-49
2021/11/29 07:59:35;;;;;;;0.20;0.10;;;;;;;2.14;100.00;99315.97;5036722;28;20447;-49
2021/11/29 08:02:17;;;;;;;0.20;0.20;;;;;;;2.10;100.00;99315.13;5037037;28;20459;-49
2021/11/29 08:04:44;;;;;;;0.80;0.60;;;;;;;1.98;100.00;99324.00;5044664;28;20485;-49
2021/11/29 08:07:10;;;;;;;0.20;0.10;;;;;;;1.97;100.00;99330.09;5041578;28;20452;-49
2021/11/29 08:09:37;;;;;;;0.20;0.10;;;;;;;1.97;100.00;99327.50;5036569;28;20994;-49
2021/11/29 08:12:04;;;;;;;0.20;0.10;;;;;;;2.14;100.00;99329.06;5036457;28;21034;-49
2021/11/29 08:14:31;;;;;;;0.20;0.10;;;;;;;2.10;100.00;99335.25;5036222;28;20447;-49
2021/11/29 08:16:57;;;;;;;0.20;0.10;;;;;;;2.08;100.00;99340.50;5036299;28;20525;-49
2021/11/29 08:19:24;;;;;;;0.20;0.10;;;;;;;2.20;100.00;99331.66;5044665;28;20458;-50
2021/11/29 08:21:51;;;;;;;0.20;0.10;;;;;;;2.25;100.00;99340.31;5042457;28;20482;-49
2021/11/29 08:24:17;;;;;;;0.20;0.10;;;;;;;2.40;100.00;99340.16;5047431;28;20443;-49
2021/11/29 08:26:44;;;;;;;0.20;0.10;;;;;;;2.29;100.00;99348.13;5033882;28;20506;-49
2021/11/29 08:29:11;;;;;;;0.20;0.10;;;;;;;2.44;100.00;99347.09;5056308;28;20454;-49
2021/11/29 08:31:37;;;;;;;0.20;0.20;;;;;;;2.67;100.00;99352.09;5053902;28;20983;-50
2021/11/29 08:34:04;;;;;;;0.20;0.10;;;;;;;2.53;100.00;99354.88;5036217;28;20455;-49
2021/11/29 08:36:32;;;;;;;0.20;0.10;;;;;;;2.56;100.00;99360.06;5035706;28;20460;-49
2021/11/29 08:38:59;;;;;;;1.17;1.17;;;;;;;2.58;100.00;99365.28;5041815;28;20446;-49
2021/11/29 08:41:27;;;;;;;0.20;0.10;;;;;;;2.74;100.00;99366.88;5072622;28;20475;-49
2021/11/29 08:43:54;;;;;;;0.60;0.60;;;;;;;2.84;100.00;99380.72;5056265;28;20558;-49
2021/11/29 08:46:22;;;;;;;0.20;0.10;;;;;;;3.03;100.00;99377.00;5043651;28;20482;-50
2021/11/29 08:48:50;;;;;;;0.20;0.10;;;;;;;3.16;100.00;99378.59;5046730;28;20508;-49
2021/11/29 08:51:17;;;;;;;0.20;0.10;;;;;;;3.22;100.00;99388.13;5036756;28;20464;-50
2021/11/29 08:53:45;;;;;;;0.20;0.20;;;;;;;3.16;100.00;99385.59;5027118;28;20447;-50
2021/11/29 08:56:11;;;;;;;0.20;0.10;;;;;;;3.15;100.00;99391.72;5037311;28;20499;-50
2021/11/29 08:58:38;;;;;;;0.20;0.10;;;;;;;3.16;100.00;99398.72;5047012;28;20544;-49
2021/11/29 09:01:05;;;;;;;0.20;0.10;;;;;;;3.24;100.00;99402.97;5041953;28;20467;-49
2021/11/29 09:03:32;;;;;;;0.20;0.10;;;;;;;3.36;100.00;99414.19;5042739;28;20447;-49
2021/11/29 09:05:59;;;;;;;0.20;0.10;;;;;;;3.27;100.00;99408.16;5049036;28;20462;-49
2021/11/29 09:08:29;;;;;;;0.20;0.10;;;;;;;3.34;100.00;99410.72;5047849;28;20451;-49
2021/11/29 09:10:55;;;;;;;0.20;0.20;;;;;;;3.33;100.00;99409.00;5055103;28;20473;-50
2021/11/29 09:13:38;;;;;;;0.20;0.10;;;;;;;3.35;100.00;99401.97;5053218;28;20521;-49
2021/11/29 09:16:07;;;;;;;0.20;0.10;;;;;;;3.49;100.00;99411.38;5035146;28;20520;-49
2021/11/29 09:18:35;;;;;;;0.20;0.10;;;;;;;3.57;100.00;99411.28;5035178;28;20510;-49
2021/11/29 09:21:04;;;;;;;0.20;0.10;;;;;;;3.36;100.00;99414.19;5044846;28;20470;-50
2021/11/29 09:23:31;;;;;;;0.20;0.10;;;;;;;3.68;100.00;99414.59;5041329;28;20448;-50
2021/11/29 09:25:58;;;;;;;0.20;0.10;;;;;;;3.71;100.00;99417.19;5045316;28;20453;-49
2021/11/29 09:28:25;;;;;;;0.20;0.10;;;;;;;3.61;100.00;99420.84;5037843;28;20822;-49
2021/11/29 09:30:54;;;;;;;0.20;0.10;;;;;;;3.74;100.00;99421.53;5034393;28;20468;-49
2021/11/29 09:33:21;;;;;;;0.20;0.20;;;;;;;3.83;100.00;99424.00;5052993;28;20446;-49
2021/11/29 09:35:49;;;;;;;0.20;0.10;;;;;;;3.78;100.00;99426.72;5054896;28;20454;-49
2021/11/29 09:38:16;;;;;;;0.20;0.10;;;;;;;3.88;100.00;99426.59;5049255;28;20541;-50
2021/11/29 09:40:44;;;;;;;0.20;0.10;;;;;;;3.84;100.00;99433.66;5068399;28;20496;-50
2021/11/29 09:43:14;;;;;;;0.20;0.10;;;;;;;3.87;100.00;99430.97;5042949;28;20532;-50
2021/11/29 09:45:43;;;;;;;0.20;0.13;;;;;;;3.98;100.00;99429.06;5042737;28;20448;-49
2021/11/29 09:48:10;;;;;;;0.20;0.10;;;;;;;3.99;100.00;99436.03;5054500;28;20447;-50
2021/11/29 09:50:40;;;;;;;0.20;0.10;;;;;;;3.80;100.00;99429.31;5040766;28;20472;-50
2021/11/29 09:53:08;;;;;;;0.53;0.53;;;;;;;3.80;100.00;99435.44;5037237;28;20456;-49
2021/11/29 09:55:37;;;;;;;0.20;0.10;;;;;;;4.05;100.00;99429.81;5033881;28;20966;-49
2021/11/29 09:58:05;;;;;;;0.30;0.30;;;;;;;4.24;100.00;99428.59;5034133;28;20491;-49
2021/11/29 10:00:42;;;;;;;0.20;0.10;;;;;;;4.02;100.00;99424.59;5047100;28;20482;-50
2021/11/29 10:03:09;;;;;;;0.20;0.10;;;;;;;4.08;100.00;99424.50;5042346;28;20450;-49
2021/11/29 10:05:37;;;;;;;0.20;0.10;;;;;;;4.10;100.00;99425.31;5053748;28;20447;-49
2021/11/29 10:08:24;;;;;;;0.20;0.13;;;;;;;4.29;100.00;99426.78;5045187;28;20447;-49
2021/11/29 10:11:17;;;;;;;0.20;0.13;;;;;;;4.14;100.00;99425.28;5034337;28;20655;-50
2021/11/29 10:13:49;;;;;;;0.20;0.10;;;;;;;4.34;100.00;99431.94;5036442;28;20448;-49
2021/11/29 10:16:36;;;;;;;0.20;0.20;;;;;;;4.20;100.00;99434.81;5054579;28;20863;-49
2021/11/29 10:19:27;;;;;;;0.30;0.30;;;;;;;4.31;100.00;99435.50;5047792;28;20901;-50
2021/11/29 10:22:20;;;;;;;0.20;0.10;;;;;;;4.30;100.00;99432.91;5046969;28;20451;-50
2021/11/29 10:24:49;;;;;;;0.20;0.10;;;;;;;4.39;100.00;99433.63;5038294;28;20770;-49
2021/11/29 10:27:17;;;;;;;0.20;0.10;;;;;;;4.28;100.00;99440.81;5047212;28;20451;-50
2021/11/29 10:29:53;;;;;;;0.20;0.10;;;;;;;4.50;100.00;99441.28;5033445;28;20894;-50
2021/11/29 10:32:42;;;;;;;0.20;0.10;;;;;;;4.52;100.00;99447.41;5032971;28;20478;-49
2021/11/29 10:35:10;;;;;;;0.20;0.10;;;;;;;4.50;100.00;99443.94;5015213;28;20452;-50
2021/11/29 10:37:39;;;;;;;0.20;0.10;;;;;;;4.56;100.00;99451.72;5033454;28;20495;-49
2021/11/29 10:40:13;;;;;;;0.20;0.10;;;;;;;4.30;100.00;99439.03;5064552;28;20535;-49
2021/11/29 10:42:40;;;;;;;0.30;0.20;;;;;;;4.34;100.00;99442.47;5059191;28;20512;-50
2021/11/29 10:45:19;;;;;;;0.40;0.40;;;;;;;4.32;100.00;99437.22;5052712;28;20506;-49
2021/11/29 10:47:52;;;;;;;0.20;0.20;;;;;;;4.30;100.00;99440.78;5053840;28;21082;-48
2021/11/29 10:50:26;;;;;;;0.20;0.10;;;;;;;4.36;100.00;99449.44;5052826;28;21019;-49
2021/11/29 10:53:08;;;;;;;0.20;0.10;;;;;;;4.63;100.00;99447.22;5052790;28;20450;-48
2021/11/29 10:55:59;;;;;;;0.20;0.10;;;;;;;4.46;99.92;99442.25;5039368;28;20941;-49
2021/11/29 10:58:28;;;;;;;0.20;0.10;;;;;;;4.57;100.00;99448.19;5032962;28;20566;-49
2021/11/29 11:00:58;;;;;;;0.20;0.10;;;;;;;4.36;99.44;99444.16;5045774;28;20471;-49
2021/11/29 11:03:25;;;;;;;0.20;0.10;;;;;;;4.47;100.00;99446.63;5044489;28;20505;-49
2021/11/29 11:06:03;;;;;;;0.20;0.10;;;;;;;4.44;99.17;99454.56;5039312;28;20488;-48
2021/11/29 11:08:34;;;;;;;0.20;0.10;;;;;;;4.51;98.70;99452.69;5040041;28;20444;-48
2021/11/29 11:11:22;;;;;;;0.20;0.10;;;;;;;4.59;99.49;99456.06;5032925;28;20470;-49
2021/11/29 11:14:02;;;;;;;0.20;0.10;;;;;;;4.66;99.47;99458.56;5032760;28;20459;-49
2021/11/29 11:16:40;;;;;;;0.20;0.10;;;;;;;4.69;99.69;99455.88;5033106;28;20478;-49
2021/11/29 11:19:21;;;;;;;0.20;0.20;;;;;;;4.72;100.00;99450.56;5039438;28;20916;-48
2021/11/29 11:21:48;;;;;;;0.20;0.20;;;;;;;4.59;99.56;99451.66;5039740;28;20499;-48
2021/11/29 11:24:31;;;;;;;0.20;0.10;;;;;;;4.80;98.76;99444.25;5053253;28;20992;-48
2021/11/29 11:26:59;;;;;;;0.20;0.10;;;;;;;4.65;99.20;99450.69;5039736;28;20526;-48
2021/11/29 11:29:38;;;;;;;0.20;0.10;;;;;;;4.70;98.89;99454.13;5053561;28;20477;-49
2021/11/29 11:32:15;;;;;;;0.20;0.10;;;;;;;4.77;98.41;99442.56;5054322;28;20454;-48
2021/11/29 11:34:46;;;;;;;0.20;0.10;;;;;;;4.68;99.05;99445.38;5035139;28;20459;-48
2021/11/29 11:37:14;;;;;;;0.30;0.20;;;;;;;4.85;99.02;99432.75;5052432;28;20859;-48
2021/11/29 11:39:43;;;;;;;0.20;0.10;;;;;;;4.80;98.06;99439.91;5047745;28;20548;-48
2021/11/29 11:42:09;;;;;;;0.20;0.10;;;;;;;4.90;97.91;99430.91;5062653;28;20447;-49